Time;durP1;ratioP1;P1;durP2;ratioP2;P2;SDS_P1;SDS_P2;PMS_P1;PMS_P2;Temp;Humidity;BMP_temperature;BMP_pressure;BME280_temperature;BME280_humidity;BME280_pressure;Samples;Min_cycle;Max_cycle;Signal;HPM_P1;HPM_P2
2023/02/25 00:02:04;;;;;;;7.60;3.70;;;4.40;99.90;;;;;;5001905;28;20264;-70
2023/02/25 00:04:32;;;;;;;5.45;3.75;;;4.40;99.90;;;;;;4993159;28;20761;-69
2023/02/25 00:06:59;;;;;;;4.65;2.92;;;4.40;99.90;;;;;;5004657;28;20238;-70
2023/02/25 00:09:25;;;;;;;4.47;3.45;;;4.40;99.90;;;;;;5005031;28;20225;-69
2023/02/25 00:11:53;;;;;;;6.20;3.15;;;4.30;99.90;;;;;;4996878;28;20583;-69
2023/02/25 00:14:20;;;;;;;7.38;3.33;;;4.40;99.90;;;;;;5004371;28;20206;-71
2023/02/25 00:16:49;;;;;;;4.50;3.50;;;4.40;99.90;;;;;;5004138;28;20226;-71
2023/02/25 00:19:16;;;;;;;4.85;3.50;;;4.40;99.90;;;;;;5005136;28;20658;-71
2023/02/25 00:21:42;;;;;;;5.15;3.88;;;4.30;99.90;;;;;;5003992;28;20281;-70
2023/02/25 00:24:10;;;;;;;5.80;3.75;;;4.40;99.90;;;;;;5004721;28;20206;-71
2023/02/25 00:26:37;;;;;;;6.45;3.45;;;4.40;99.90;;;;;;5004619;28;20264;-70
2023/02/25 00:29:05;;;;;;;6.88;4.15;;;4.30;99.90;;;;;;5004571;28;20245;-70
2023/02/25 00:31:32;;;;;;;5.75;4.40;;;4.40;99.90;;;;;;5004542;28;20255;-70
2023/02/25 00:33:59;;;;;;;4.63;3.50;;;4.40;99.90;;;;;;5004202;28;20206;-69
2023/02/25 00:36:28;;;;;;;6.10;3.70;;;4.30;99.90;;;;;;5004630;28;20201;-70
2023/02/25 00:38:57;;;;;;;4.15;3.60;;;4.40;99.90;;;;;;5004540;28;20239;-69
2023/02/25 00:41:25;;;;;;;4.55;3.72;;;4.40;99.90;;;;;;5004642;28;20578;-70
2023/02/25 00:43:54;;;;;;;4.60;4.03;;;4.40;99.90;;;;;;5004326;28;20233;-71
2023/02/25 00:46:23;;;;;;;6.65;4.20;;;4.40;99.90;;;;;;5004497;28;20198;-70
2023/02/25 00:48:50;;;;;;;4.35;3.40;;;4.40;99.90;;;;;;5004231;28;20202;-69
2023/02/25 00:51:19;;;;;;;7.40;3.78;;;4.40;99.90;;;;;;5004606;28;20202;-70
2023/02/25 00:53:46;;;;;;;5.88;4.72;;;4.40;99.90;;;;;;5003704;28;20559;-70
2023/02/25 00:56:15;;;;;;;6.93;4.55;;;4.30;99.90;;;;;;5005101;28;20203;-70
2023/02/25 00:58:42;;;;;;;5.25;3.78;;;4.40;99.90;;;;;;5004853;28;20246;-69
2023/02/25 01:01:17;;;;;;;3.45;3.15;;;4.30;99.90;;;;;;5005100;28;20202;-70
2023/02/25 01:03:45;;;;;;;3.83;2.65;;;4.30;99.90;;;;;;5003916;28;20229;-71
2023/02/25 01:06:12;;;;;;;5.35;4.00;;;4.30;99.90;;;;;;5005332;28;20202;-70
2023/02/25 01:08:39;;;;;;;7.68;4.70;;;4.40;99.90;;;;;;5005215;28;20225;-70
2023/02/25 01:11:11;;;;;;;4.60;3.63;;;4.40;99.90;;;;;;5006487;28;20237;-70
2023/02/25 01:13:38;;;;;;;5.22;3.70;;;4.40;99.90;;;;;;5005516;28;20206;-70
2023/02/25 01:16:11;;;;;;;5.28;3.60;;;4.40;99.90;;;;;;5005519;28;20210;-69
2023/02/25 01:18:39;;;;;;;3.35;2.92;;;4.40;99.90;;;;;;5004815;28;20350;-70
2023/02/25 01:21:07;;;;;;;5.18;3.05;;;4.40;99.90;;;;;;5005454;28;20298;-70
2023/02/25 01:23:34;;;;;;;4.18;3.13;;;4.40;99.90;;;;;;5005164;28;20359;-69
2023/02/25 01:26:03;;;;;;;6.68;4.00;;;4.40;99.90;;;;;;5004346;28;20205;-68
2023/02/25 01:28:30;;;;;;;5.85;3.20;;;4.30;99.90;;;;;;5006960;28;20598;-69
2023/02/25 01:30:56;;;;;;;5.38;3.33;;;4.30;99.90;;;;;;4998980;28;20211;-70
2023/02/25 01:33:23;;;;;;;5.43;3.85;;;4.30;99.90;;;;;;5004355;28;20198;-70
2023/02/25 01:35:50;;;;;;;5.00;2.67;;;4.40;99.90;;;;;;5078595;22;20269;-71
2023/02/25 01:38:18;;;;;;;6.05;3.60;;;4.40;99.90;;;;;;4990607;28;20599;-70
2023/02/25 01:40:44;;;;;;;2.83;2.58;;;4.40;99.90;;;;;;4990207;28;20196;-71
2023/02/25 01:43:15;;;;;;;4.72;3.75;;;4.40;99.90;;;;;;4989880;28;20202;-70
2023/02/25 01:45:44;;;;;;;5.47;3.53;;;4.40;99.90;;;;;;4990358;28;20685;-70
2023/02/25 01:48:15;;;;;;;7.43;4.00;;;4.40;99.90;;;;;;4982787;28;20250;-70
2023/02/25 01:50:47;;;;;;;3.97;3.38;;;4.30;99.90;;;;;;4990266;28;20588;-71
2023/02/25 01:53:17;;;;;;;4.25;2.90;;;4.30;99.90;;;;;;4990200;28;20210;-70
2023/02/25 01:55:45;;;;;;;6.20;2.65;;;4.20;99.90;;;;;;4990631;28;20211;-71
2023/02/25 01:58:13;;;;;;;3.78;2.60;;;4.20;99.90;;;;;;4982862;28;20227;-70
2023/02/25 02:00:40;;;;;;;7.43;3.10;;;4.10;99.90;;;;;;4989917;28;20195;-70
2023/02/25 02:03:14;;;;;;;3.17;2.83;;;4.00;99.90;;;;;;4989029;28;20206;-70
2023/02/25 02:05:52;;;;;;;9.48;3.58;;;4.00;99.90;;;;;;4989530;28;20195;-71
2023/02/25 02:08:19;;;;;;;3.70;2.65;;;4.00;99.90;;;;;;4989646;28;20215;-70
2023/02/25 02:10:47;;;;;;;3.53;2.35;;;4.00;99.90;;;;;;4989524;28;20219;-70
2023/02/25 02:13:15;;;;;;;3.20;2.90;;;4.10;99.90;;;;;;4989957;28;20199;-70
2023/02/25 02:15:54;;;;;;;3.90;2.78;;;4.10;99.90;;;;;;4990063;28;20215;-70
2023/02/25 02:18:21;;;;;;;5.07;2.97;;;4.10;99.90;;;;;;4990150;28;20223;-70
2023/02/25 02:21:04;;;;;;;3.10;2.53;;;4.10;99.90;;;;;;4989607;28;20203;-71
2023/02/25 02:24:02;;;;;;;3.15;2.80;;;4.10;99.90;;;;;;4989409;28;20685;-71
2023/02/25 02:26:46;;;;;;;4.70;3.40;;;4.10;99.90;;;;;;4989999;28;20199;-71
2023/02/25 02:29:46;;;;;;;5.38;3.10;;;4.10;99.90;;;;;;4990022;28;20287;-71
2023/02/25 02:32:20;;;;;;;5.88;3.38;;;4.00;99.90;;;;;;4967437;28;20207;-70
2023/02/25 02:34:57;;;;;;;7.32;3.10;;;4.00;99.90;;;;;;4989302;28;20206;-71
2023/02/25 02:37:31;;;;;;;4.78;3.50;;;4.00;99.90;;;;;;4989802;28;20230;-71
2023/02/25 02:40:14;;;;;;;4.30;3.40;;;4.00;99.90;;;;;;4989351;28;20227;-71
2023/02/25 02:42:51;;;;;;;5.28;3.40;;;4.00;99.90;;;;;;4988954;28;20591;-70
2023/02/25 02:45:22;;;;;;;4.55;2.83;;;4.00;99.90;;;;;;4989822;28;20214;-71
2023/02/25 02:47:53;;;;;;;5.47;4.30;;;4.00;99.90;;;;;;4989380;28;20219;-71
2023/02/25 02:50:28;;;;;;;5.30;3.53;;;4.00;99.90;;;;;;4989789;28;20693;-70
2023/02/25 02:52:59;;;;;;;4.50;3.25;;;4.00;99.90;;;;;;4988950;28;20198;-71
2023/02/25 02:55:32;;;;;;;8.75;4.03;;;4.00;99.90;;;;;;4989594;28;20203;-71
2023/02/25 02:58:06;;;;;;;3.58;2.97;;;4.00;99.90;;;;;;4989369;28;20219;-70
2023/02/25 03:00:38;;;;;;;6.40;3.70;;;4.00;99.90;;;;;;4989633;28;20192;-71
2023/02/25 03:03:10;;;;;;;4.30;3.75;;;3.90;99.90;;;;;;4988818;28;20203;-71
2023/02/25 03:05:41;;;;;;;4.50;3.53;;;4.00;99.90;;;;;;4989315;28;20199;-71
2023/02/25 03:08:16;;;;;;;5.35;3.00;;;4.00;99.90;;;;;;4989342;28;20233;-70
2023/02/25 03:10:43;;;;;;;7.07;3.47;;;4.00;99.90;;;;;;4989209;28;20219;-71
2023/02/25 03:13:10;;;;;;;5.03;3.10;;;3.90;99.90;;;;;;4988704;28;20685;-70
2023/02/25 03:15:39;;;;;;;3.92;3.47;;;3.90;99.90;;;;;;4989242;28;20203;-71
2023/02/25 03:18:15;;;;;;;5.68;3.70;;;3.90;99.90;;;;;;4989198;28;20231;-71
2023/02/25 03:20:45;;;;;;;5.78;4.07;;;3.90;99.90;;;;;;4989097;28;20195;-70
2023/02/25 03:23:18;;;;;;;4.90;3.10;;;3.90;99.90;;;;;;4988811;28;20222;-70
2023/02/25 03:25:48;;;;;;;8.77;3.40;;;3.90;99.90;;;;;;4989028;28;20561;-71
2023/02/25 03:28:24;;;;;;;5.60;3.58;;;4.00;99.90;;;;;;4989248;28;20728;-70
2023/02/25 03:30:58;;;;;;;4.15;2.65;;;4.00;99.90;;;;;;4988691;28;20239;-71
2023/02/25 03:33:32;;;;;;;2.95;2.30;;;4.00;99.90;;;;;;4988848;28;20199;-70
2023/02/25 03:36:01;;;;;;;2.42;1.95;;;4.00;99.90;;;;;;4988723;28;20555;-70
2023/02/25 03:38:33;;;;;;;3.38;2.00;;;4.00;99.90;;;;;;4989248;28;20219;-71
2023/02/25 03:41:04;;;;;;;5.53;2.97;;;3.90;99.90;;;;;;4988714;28;20670;-70
2023/02/25 03:43:36;;;;;;;5.07;2.38;;;3.90;99.90;;;;;;4988430;28;20203;-71
2023/02/25 03:46:05;;;;;;;2.78;2.33;;;3.80;99.90;;;;;;4989083;28;20207;-71
2023/02/25 03:48:36;;;;;;;2.55;2.33;;;3.80;99.90;;;;;;4989003;28;20222;-71
2023/02/25 03:51:05;;;;;;;2.97;2.35;;;3.80;99.90;;;;;;4988029;28;20223;-71
2023/02/25 03:53:33;;;;;;;3.22;2.03;;;3.80;99.90;;;;;;4988394;28;20199;-71
2023/02/25 03:56:04;;;;;;;3.20;1.60;;;3.80;99.90;;;;;;4988766;28;20211;-71
2023/02/25 03:58:32;;;;;;;2.08;1.70;;;3.80;99.90;;;;;;4988756;28;20319;-71
2023/02/25 04:01:02;;;;;;;1.95;1.60;;;3.80;99.90;;;;;;4988388;28;20273;-71
2023/02/25 04:03:29;;;;;;;3.17;2.15;;;3.80;99.90;;;;;;4988134;28;20226;-71
2023/02/25 04:05:57;;;;;;;2.42;2.03;;;3.80;99.90;;;;;;4988070;28;20305;-71
2023/02/25 04:08:24;;;;;;;2.78;2.08;;;3.80;99.90;;;;;;4988463;28;20211;-71
2023/02/25 04:10:51;;;;;;;3.00;2.03;;;3.80;99.90;;;;;;4988108;28;20238;-71
2023/02/25 04:13:19;;;;;;;2.30;2.10;;;3.70;99.90;;;;;;4980018;28;20670;-71
2023/02/25 04:15:47;;;;;;;3.20;2.10;;;3.70;99.90;;;;;;4988116;28;20203;-71
2023/02/25 04:18:14;;;;;;;2.85;2.65;;;3.70;99.90;;;;;;4988141;28;20252;-71
2023/02/25 04:20:41;;;;;;;1.40;1.30;;;3.70;99.90;;;;;;4988079;28;20202;-70
2023/02/25 04:23:12;;;;;;;2.38;1.85;;;3.70;99.90;;;;;;4987513;28;20210;-71
2023/02/25 04:25:39;;;;;;;2.03;1.73;;;3.70;99.90;;;;;;4987680;28;20210;-71
2023/02/25 04:28:05;;;;;;;1.73;1.60;;;3.70;99.90;;;;;;4988165;28;20643;-70
2023/02/25 04:30:32;;;;;;;2.78;1.60;;;3.70;99.90;;;;;;4988122;28;20219;-70
2023/02/25 04:32:59;;;;;;;1.65;1.55;;;3.70;99.90;;;;;;4987526;28;20215;-71
2023/02/25 04:35:25;;;;;;;1.75;1.58;;;3.70;99.90;;;;;;4988389;28;20199;-71
2023/02/25 04:37:52;;;;;;;1.73;1.63;;;3.70;99.90;;;;;;4988059;28;20603;-70
2023/02/25 04:40:22;;;;;;;3.10;2.22;;;3.70;99.90;;;;;;4988302;28;20206;-70
2023/02/25 04:42:49;;;;;;;3.67;1.85;;;3.70;99.90;;;;;;4987372;28;20203;-70
2023/02/25 04:45:16;;;;;;;3.60;2.28;;;3.70;99.90;;;;;;4987917;28;20797;-71
2023/02/25 04:47:43;;;;;;;2.20;1.63;;;3.70;99.90;;;;;;4987835;28;20219;-70
2023/02/25 04:50:11;;;;;;;2.45;1.60;;;3.70;99.90;;;;;;4987601;28;20199;-70
2023/02/25 04:52:38;;;;;;;2.45;1.75;;;3.70;99.90;;;;;;4987266;28;20269;-70
2023/02/25 04:55:06;;;;;;;3.47;1.67;;;3.70;99.90;;;;;;4988140;28;20214;-71
2023/02/25 04:57:34;;;;;;;4.05;2.10;;;3.70;99.90;;;;;;4988058;28;20234;-71
2023/02/25 05:00:00;;;;;;;2.45;1.95;;;3.70;99.90;;;;;;4988046;28;20203;-70
2023/02/25 05:02:27;;;;;;;1.95;1.75;;;3.60;99.90;;;;;;4990405;28;20210;-70
2023/02/25 05:04:54;;;;;;;9.27;2.00;;;3.60;99.90;;;;;;4991177;28;20199;-70
2023/02/25 05:07:20;;;;;;;1.45;1.35;;;3.60;99.90;;;;;;4991659;28;20608;-70
2023/02/25 05:09:47;;;;;;;1.48;1.20;;;3.60;99.90;;;;;;4990966;28;20203;-71
2023/02/25 05:12:14;;;;;;;3.53;2.15;;;3.50;99.90;;;;;;4990771;28;20222;-71
2023/02/25 05:14:42;;;;;;;3.75;2.35;;;3.50;99.90;;;;;;4990814;28;20210;-71
2023/02/25 05:17:09;;;;;;;4.30;2.13;;;3.50;99.90;;;;;;4991044;28;20262;-70
2023/02/25 05:19:35;;;;;;;1.67;1.48;;;3.50;99.90;;;;;;4991170;28;20203;-71
2023/02/25 05:22:02;;;;;;;1.25;1.10;;;3.50;99.90;;;;;;4991069;28;20195;-70
2023/02/25 05:24:29;;;;;;;5.35;1.75;;;3.50;99.90;;;;;;4989329;28;20203;-70
2023/02/25 05:26:55;;;;;;;3.05;1.25;;;3.40;99.90;;;;;;4990149;28;20572;-70
2023/02/25 05:29:22;;;;;;;1.63;1.10;;;3.40;99.90;;;;;;4982994;28;20662;-70
2023/02/25 05:31:50;;;;;;;1.67;1.25;;;3.40;99.90;;;;;;4984794;28;20221;-70
2023/02/25 05:34:17;;;;;;;2.38;1.02;;;3.30;99.90;;;;;;4990041;28;20618;-70
2023/02/25 05:36:45;;;;;;;1.95;1.15;;;3.30;99.90;;;;;;4989905;28;20258;-71
2023/02/25 05:39:13;;;;;;;4.25;1.10;;;3.30;99.90;;;;;;4989555;28;20691;-71
2023/02/25 05:41:40;;;;;;;2.83;1.17;;;3.30;99.90;;;;;;4990598;28;20211;-70
2023/02/25 05:44:07;;;;;;;2.05;1.40;;;3.30;99.90;;;;;;4990172;28;20210;-71
2023/02/25 05:46:34;;;;;;;1.35;1.17;;;3.30;99.90;;;;;;4990432;28;20196;-70
2023/02/25 05:49:02;;;;;;;1.48;1.10;;;3.30;99.90;;;;;;4990613;28;20207;-71
2023/02/25 05:51:29;;;;;;;1.13;0.93;;;3.30;99.90;;;;;;4990556;28;20219;-71
2023/02/25 05:53:57;;;;;;;2.83;1.45;;;3.30;99.90;;;;;;4990061;28;20207;-71
2023/02/25 05:56:26;;;;;;;1.30;1.10;;;3.20;99.90;;;;;;4982833;28;20267;-70
2023/02/25 05:58:53;;;;;;;1.10;0.90;;;3.20;99.90;;;;;;4990477;28;20242;-70
2023/02/25 06:01:22;;;;;;;3.25;1.40;;;3.20;99.90;;;;;;4990440;28;20206;-71
2023/02/25 06:03:51;;;;;;;5.75;1.45;;;3.20;99.90;;;;;;4989988;28;20211;-71
2023/02/25 06:06:21;;;;;;;1.23;1.00;;;3.20;99.90;;;;;;4990445;28;20203;-70
2023/02/25 06:08:49;;;;;;;4.38;1.55;;;3.20;99.90;;;;;;4990263;28;20203;-70
2023/02/25 06:11:19;;;;;;;2.92;1.35;;;3.20;99.90;;;;;;4990072;28;20226;-71
2023/02/25 06:13:47;;;;;;;1.98;1.77;;;3.20;99.90;;;;;;4989171;28;20570;-70
2023/02/25 06:16:14;;;;;;;1.77;1.10;;;3.10;99.90;;;;;;4990302;28;20606;-70
2023/02/25 06:18:41;;;;;;;1.30;1.08;;;3.10;99.90;;;;;;4990247;28;20223;-70
2023/02/25 06:21:10;;;;;;;1.80;1.25;;;3.10;99.90;;;;;;4990132;28;20624;-71
2023/02/25 06:23:40;;;;;;;2.78;1.75;;;3.10;99.90;;;;;;4989622;28;20203;-70
2023/02/25 06:26:08;;;;;;;1.30;1.10;;;3.10;99.90;;;;;;4990054;28;20203;-70
2023/02/25 06:28:36;;;;;;;2.72;1.33;;;3.10;99.90;;;;;;4989927;28;20219;-71
2023/02/25 06:31:03;;;;;;;2.58;1.67;;;3.10;99.90;;;;;;4989849;28;20222;-70
2023/02/25 06:33:30;;;;;;;1.65;1.10;;;3.20;99.90;;;;;;4989439;28;20661;-71
2023/02/25 06:35:57;;;;;;;1.60;1.05;;;3.20;99.90;;;;;;4989630;28;20207;-70
2023/02/25 06:38:24;;;;;;;1.20;1.10;;;3.20;99.90;;;;;;4989866;28;20215;-70
2023/02/25 06:40:52;;;;;;;3.63;1.10;;;3.20;99.90;;;;;;4989674;28;20219;-71
2023/02/25 06:43:19;;;;;;;1.15;1.05;;;3.30;99.90;;;;;;4989499;28;20298;-70
2023/02/25 06:45:46;;;;;;;3.63;1.30;;;3.30;99.90;;;;;;4989897;28;20195;-69
2023/02/25 06:48:12;;;;;;;1.52;1.42;;;3.30;99.90;;;;;;4989745;28;20227;-70
2023/02/25 06:50:40;;;;;;;2.97;1.42;;;3.30;99.90;;;;;;4989604;28;20203;-68
2023/02/25 06:53:07;;;;;;;4.45;1.85;;;3.30;99.90;;;;;;4989362;28;20207;-70
2023/02/25 06:55:34;;;;;;;1.90;1.80;;;3.30;99.90;;;;;;4989860;28;20195;-70
2023/02/25 06:58:02;;;;;;;1.50;1.20;;;3.40;99.90;;;;;;4989993;28;20230;-70
2023/02/25 07:00:29;;;;;;;2.60;1.55;;;3.40;99.90;;;;;;4989747;28;20198;-70
2023/02/25 07:02:56;;;;;;;2.72;1.10;;;3.40;99.90;;;;;;4988917;28;20200;-70
2023/02/25 07:05:22;;;;;;;4.10;1.20;;;3.40;99.90;;;;;;4989314;28;20214;-70
2023/02/25 07:07:49;;;;;;;3.72;0.95;;;3.50;99.90;;;;;;4989320;28;20222;-70
2023/02/25 07:10:16;;;;;;;2.40;1.33;;;3.50;99.90;;;;;;4989430;28;20565;-70
2023/02/25 07:12:43;;;;;;;2.58;1.52;;;3.60;99.90;;;;;;4988730;28;20329;-70
2023/02/25 07:15:11;;;;;;;1.00;0.80;;;3.70;99.90;;;;;;4989504;28;20203;-70
2023/02/25 07:17:38;;;;;;;2.03;1.05;;;3.80;99.90;;;;;;4989395;28;20230;-70
2023/02/25 07:20:05;;;;;;;2.47;1.40;;;3.90;99.90;;;;;;4989144;28;20211;-70
2023/02/25 07:22:32;;;;;;;3.03;1.33;;;4.00;99.90;;;;;;4988962;28;20195;-70
2023/02/25 07:24:59;;;;;;;2.15;1.48;;;4.10;99.90;;;;;;4988174;28;20214;-70
2023/02/25 07:27:26;;;;;;;1.38;1.00;;;4.30;99.90;;;;;;4989099;28;20705;-71
2023/02/25 07:29:53;;;;;;;3.15;1.77;;;4.90;99.90;;;;;;4989286;28;20200;-70
2023/02/25 07:32:23;;;;;;;1.30;1.20;;;5.70;99.90;;;;;;4989222;28;20230;-71
2023/02/25 07:34:50;;;;;;;1.92;1.33;;;6.70;99.90;;;;;;4988685;28;20208;-71
2023/02/25 07:37:16;;;;;;;2.95;1.45;;;7.60;99.90;;;;;;4988703;28;20231;-69
2023/02/25 07:39:43;;;;;;;1.90;1.40;;;8.40;99.90;;;;;;4988871;28;20712;-69
2023/02/25 07:42:10;;;;;;;1.10;1.00;;;9.00;99.90;;;;;;4988739;28;20687;-71
2023/02/25 07:44:37;;;;;;;1.35;1.10;;;9.50;99.90;;;;;;4988782;28;20202;-71
2023/02/25 07:47:03;;;;;;;2.10;1.00;;;10.00;99.90;;;;;;4989212;28;20271;-70
2023/02/25 07:49:31;;;;;;;1.40;1.30;;;10.60;99.30;;;;;;4980988;28;20195;-70
2023/02/25 07:51:59;;;;;;;1.65;1.08;;;11.20;98.00;;;;;;4988703;28;20231;-70
2023/02/25 07:54:26;;;;;;;2.40;1.20;;;11.50;96.70;;;;;;4988168;28;20658;-70
2023/02/25 07:56:53;;;;;;;1.60;1.30;;;11.80;96.00;;;;;;4988538;28;20215;-70
2023/02/25 07:59:19;;;;;;;1.27;1.00;;;12.10;94.90;;;;;;4988654;28;20203;-70
2023/02/25 08:01:46;;;;;;;2.35;1.00;;;12.40;94.50;;;;;;4988588;28;20670;-70
2023/02/25 08:04:13;;;;;;;1.23;1.00;;;12.50;93.80;;;;;;4988202;28;20231;-70
2023/02/25 08:06:41;;;;;;;1.40;1.00;;;12.40;93.40;;;;;;4988475;28;20633;-70
2023/02/25 08:09:11;;;;;;;1.10;0.98;;;12.40;92.80;;;;;;4988407;28;20207;-70
2023/02/25 08:11:38;;;;;;;1.20;1.00;;;12.50;93.00;;;;;;4983301;28;20218;-69
2023/02/25 08:14:05;;;;;;;2.80;1.23;;;12.90;92.80;;;;;;4977376;28;20206;-69
2023/02/25 08:16:32;;;;;;;2.40;1.30;;;13.20;92.80;;;;;;4980629;28;20223;-69
2023/02/25 08:18:59;;;;;;;1.50;1.10;;;13.50;92.10;;;;;;4988165;28;20992;-70
2023/02/25 08:21:26;;;;;;;2.60;1.13;;;13.50;91.50;;;;;;4988140;28;20458;-69
2023/02/25 08:23:54;;;;;;;2.60;1.00;;;13.30;91.30;;;;;;4987745;28;20470;-70
2023/02/25 08:26:22;;;;;;;3.30;1.27;;;13.60;91.30;;;;;;4988338;28;20466;-70
2023/02/25 08:28:50;;;;;;;1.97;1.20;;;14.40;90.90;;;;;;4988314;28;20988;-70
2023/02/25 08:31:18;;;;;;;1.20;1.10;;;14.50;88.00;;;;;;4988105;28;20477;-69
2023/02/25 08:33:48;;;;;;;1.43;1.10;;;13.50;90.20;;;;;;4987639;28;20467;-69
2023/02/25 08:36:16;;;;;;;2.35;1.33;;;12.10;90.10;;;;;;4987979;28;20514;-70
2023/02/25 08:38:43;;;;;;;2.00;1.17;;;11.00;91.20;;;;;;4987717;28;20219;-70
2023/02/25 08:41:12;;;;;;;2.35;1.27;;;9.90;92.00;;;;;;4987681;28;20203;-69
2023/02/25 08:43:40;;;;;;;1.05;0.95;;;8.90;92.80;;;;;;4987747;28;20196;-69
2023/02/25 08:46:07;;;;;;;2.42;1.33;;;8.20;94.00;;;;;;4988945;28;20203;-69
2023/02/25 08:48:36;;;;;;;4.20;1.27;;;7.60;94.80;;;;;;4980246;28;20669;-71
2023/02/25 08:51:07;;;;;;;1.77;1.23;;;7.10;95.60;;;;;;4988175;28;20693;-71
2023/02/25 08:53:34;;;;;;;2.63;1.33;;;6.60;96.20;;;;;;4987965;28;20300;-70
2023/02/25 08:56:02;;;;;;;1.83;1.20;;;6.40;96.90;;;;;;4988450;28;20207;-70
2023/02/25 08:58:31;;;;;;;1.10;1.00;;;6.20;97.20;;;;;;4988002;28;20588;-70
2023/02/25 09:00:58;;;;;;;2.03;1.30;;;6.20;97.60;;;;;;4989202;28;20204;-71
2023/02/25 09:03:24;;;;;;;5.65;1.55;;;6.10;97.30;;;;;;4988610;28;20206;-71
2023/02/25 09:05:52;;;;;;;3.00;1.60;;;6.20;97.50;;;;;;4990742;28;20195;-71
2023/02/25 09:08:19;;;;;;;3.03;1.33;;;6.10;97.30;;;;;;4992181;28;20269;-71
2023/02/25 09:10:46;;;;;;;1.73;1.33;;;6.10;98.00;;;;;;4993757;28;20206;-71
2023/02/25 09:13:13;;;;;;;2.92;1.40;;;6.00;97.50;;;;;;4992767;28;20246;-70
2023/02/25 09:15:41;;;;;;;1.40;1.30;;;5.90;97.70;;;;;;4992063;28;20302;-71
2023/02/25 09:18:08;;;;;;;2.00;1.27;;;5.90;97.60;;;;;;4992789;28;20249;-71
2023/02/25 09:20:35;;;;;;;3.22;1.42;;;5.90;98.20;;;;;;4976963;28;20211;-70
2023/02/25 09:23:03;;;;;;;2.88;2.00;;;5.90;98.40;;;;;;4983258;28;20569;-70
2023/02/25 09:25:30;;;;;;;3.20;1.40;;;6.00;98.20;;;;;;4987360;28;20199;-70
2023/02/25 09:28:02;;;;;;;6.75;1.63;;;6.00;98.50;;;;;;4987380;28;20338;-70
2023/02/25 09:30:30;;;;;;;2.33;1.30;;;6.10;98.60;;;;;;4987669;28;20673;-70
2023/02/25 09:32:59;;;;;;;1.40;1.30;;;6.30;98.80;;;;;;4986704;28;20218;-70
2023/02/25 09:35:26;;;;;;;3.40;1.75;;;6.50;98.50;;;;;;4987147;28;20215;-70
2023/02/25 09:37:53;;;;;;;2.65;1.38;;;6.70;97.80;;;;;;4987416;28;20229;-71
2023/02/25 09:40:21;;;;;;;1.77;1.42;;;6.90;98.10;;;;;;4987334;28;20207;-70
2023/02/25 09:42:58;;;;;;;3.10;1.20;;;7.00;97.80;;;;;;4986729;28;20195;-70
2023/02/25 09:45:27;;;;;;;1.60;1.27;;;7.20;96.80;;;;;;4987235;28;20629;-70
2023/02/25 09:47:59;;;;;;;1.80;1.15;;;7.40;97.80;;;;;;4987673;28;20223;-70
2023/02/25 09:50:30;;;;;;;2.28;1.25;;;9.20;95.90;;;;;;4990540;28;20691;-70
2023/02/25 09:53:04;;;;;;;2.10;1.02;;;10.40;93.90;;;;;;4990216;28;20247;-69
2023/02/25 09:55:34;;;;;;;1.20;1.08;;;10.20;91.60;;;;;;4990515;28;20329;-70
2023/02/25 09:58:08;;;;;;;1.73;1.00;;;9.50;92.40;;;;;;4990517;28;20328;-70
2023/02/25 10:00:43;;;;;;;1.00;0.80;;;8.40;92.80;;;;;;4990756;28;20199;-70
2023/02/25 10:03:20;;;;;;;1.20;1.00;;;7.60;92.80;;;;;;4990844;28;20195;-70
2023/02/25 10:05:55;;;;;;;1.00;0.82;;;7.30;93.60;;;;;;4984277;28;20207;-70
2023/02/25 10:08:27;;;;;;;1.20;1.00;;;7.00;93.80;;;;;;4991586;28;20592;-70
2023/02/25 10:11:02;;;;;;;2.85;0.90;;;6.80;94.20;;;;;;4991463;28;20683;-70
2023/02/25 10:13:41;;;;;;;1.23;0.98;;;6.70;94.20;;;;;;4990872;28;20214;-70
2023/02/25 10:16:27;;;;;;;1.60;1.20;;;7.30;94.80;;;;;;4991476;28;20199;-69
2023/02/25 10:19:08;;;;;;;6.68;1.35;;;9.50;92.50;;;;;;4991216;28;20199;-69
2023/02/25 10:21:53;;;;;;;2.55;0.90;;;10.30;90.70;;;;;;4990304;28;20214;-70
2023/02/25 10:24:34;;;;;;;1.17;0.80;;;9.60;90.70;;;;;;4991189;28;20200;-70
2023/02/25 10:27:10;;;;;;;1.20;1.10;;;8.80;91.20;;;;;;4990631;28;20251;-70
2023/02/25 10:29:45;;;;;;;1.52;1.10;;;8.10;92.30;;;;;;4990596;28;20646;-70
2023/02/25 10:32:21;;;;;;;1.10;1.00;;;7.60;93.00;;;;;;4989701;28;20605;-70
2023/02/25 10:34:51;;;;;;;1.63;0.80;;;7.40;93.30;;;;;;4989261;28;20312;-70
2023/02/25 10:37:25;;;;;;;1.65;1.23;;;7.30;92.20;;;;;;4989714;28;20231;-70
2023/02/25 10:39:56;;;;;;;1.48;1.10;;;7.30;93.10;;;;;;4989943;28;20609;-70
2023/02/25 10:42:27;;;;;;;2.08;0.82;;;7.50;93.20;;;;;;4989417;28;20294;-70
2023/02/25 10:44:55;;;;;;;2.45;0.80;;;7.70;92.30;;;;;;4989402;28;20205;-70
2023/02/25 10:47:33;;;;;;;1.48;0.82;;;7.70;92.70;;;;;;4989186;28;20223;-70
2023/02/25 10:50:21;;;;;;;1.70;1.13;;;7.50;92.70;;;;;;4989374;28;20207;-70
2023/02/25 10:52:57;;;;;;;1.70;0.95;;;7.20;93.50;;;;;;4989115;28;20230;-70
2023/02/25 10:55:31;;;;;;;1.50;1.10;;;7.00;93.80;;;;;;4989601;28;20571;-70
2023/02/25 10:57:59;;;;;;;3.58;1.30;;;6.80;94.10;;;;;;4988928;28;20249;-70
2023/02/25 11:00:28;;;;;;;1.10;0.90;;;6.60;94.20;;;;;;4989200;28;20234;-70
2023/02/25 11:02:56;;;;;;;1.48;1.05;;;6.50;94.30;;;;;;4988837;28;20276;-70
2023/02/25 11:05:39;;;;;;;2.47;1.40;;;6.40;94.80;;;;;;4989233;28;20207;-70
2023/02/25 11:08:25;;;;;;;2.65;1.05;;;6.40;94.50;;;;;;4989626;28;20276;-70
2023/02/25 11:11:01;;;;;;;1.20;1.00;;;6.40;95.50;;;;;;4988638;28;20210;-70
2023/02/25 11:13:29;;;;;;;2.28;1.40;;;6.50;95.10;;;;;;4988604;28;20384;-70
2023/02/25 11:16:07;;;;;;;1.35;1.00;;;6.60;95.10;;;;;;4989304;28;20578;-70
2023/02/25 11:18:35;;;;;;;1.50;1.13;;;6.50;95.00;;;;;;4988621;28;20227;-70
2023/02/25 11:21:06;;;;;;;3.17;1.00;;;6.40;94.50;;;;;;4989472;28;20214;-70
2023/02/25 11:23:35;;;;;;;1.10;1.00;;;6.40;94.60;;;;;;4988131;28;20245;-70
2023/02/25 11:26:03;;;;;;;1.95;1.20;;;6.30;95.10;;;;;;4989075;28;20206;-70
2023/02/25 11:28:33;;;;;;;1.10;0.88;;;6.30;95.20;;;;;;4988981;28;20276;-70
2023/02/25 11:31:09;;;;;;;1.55;1.13;;;6.30;94.80;;;;;;4989351;28;20260;-70
2023/02/25 11:33:37;;;;;;;1.40;1.00;;;6.40;95.60;;;;;;4987951;28;20300;-70
2023/02/25 11:36:07;;;;;;;2.45;1.20;;;7.20;94.50;;;;;;4988916;28;20719;-70
2023/02/25 11:38:36;;;;;;;2.15;0.85;;;7.90;94.00;;;;;;4988866;28;20230;-70
2023/02/25 11:41:04;;;;;;;2.42;1.23;;;8.10;93.10;;;;;;4988977;28;20203;-70
2023/02/25 11:43:38;;;;;;;1.50;1.15;;;8.10;93.80;;;;;;4988489;28;20211;-71
2023/02/25 11:46:10;;;;;;;1.38;1.05;;;8.00;93.20;;;;;;4989067;28;20207;-70
2023/02/25 11:48:45;;;;;;;1.00;0.88;;;7.90;93.60;;;;;;4988684;28;20230;-70
2023/02/25 11:51:22;;;;;;;1.30;0.93;;;7.60;93.90;;;;;;4989412;28;20727;-69
2023/02/25 11:54:10;;;;;;;0.90;0.75;;;7.20;94.60;;;;;;4981346;28;20230;-70
2023/02/25 11:56:42;;;;;;;1.13;1.02;;;7.00;94.80;;;;;;4988674;28;20209;-69
2023/02/25 11:59:30;;;;;;;1.33;0.98;;;6.70;94.50;;;;;;4989157;28;20229;-69
2023/02/25 12:02:26;;;;;;;1.02;0.93;;;6.50;95.50;;;;;;4989182;28;20570;-71
2023/02/25 12:05:33;;;;;;;1.90;1.23;;;6.30;95.10;;;;;;4988445;28;20203;-70
2023/02/25 12:08:21;;;;;;;1.38;1.25;;;6.20;95.70;;;;;;4988892;28;20230;-69
2023/02/25 12:11:29;;;;;;;0.98;0.82;;;6.00;95.80;;;;;;4987728;28;20199;-72
2023/02/25 12:14:26;;;;;;;2.60;1.20;;;5.90;96.30;;;;;;4987944;28;20222;-69
2023/02/25 12:17:31;;;;;;;1.50;1.08;;;5.80;95.80;;;;;;4988393;28;20749;-69
2023/02/25 12:20:32;;;;;;;1.40;1.20;;;5.70;96.30;;;;;;4968428;28;20559;-71
2023/02/25 12:23:35;;;;;;;3.28;1.15;;;5.60;96.60;;;;;;4988088;28;20632;-71
2023/02/25 12:26:09;;;;;;;1.50;1.00;;;5.60;96.70;;;;;;4987212;28;20214;-71
2023/02/25 12:28:52;;;;;;;4.43;1.20;;;5.60;96.80;;;;;;4986948;28;20408;-70
2023/02/25 12:31:48;;;;;;;2.75;1.00;;;5.70;97.10;;;;;;4991418;28;20207;-70
2023/02/25 12:34:33;;;;;;;1.30;1.20;;;5.80;97.50;;;;;;4976847;28;20223;-70
2023/02/25 12:37:17;;;;;;;1.65;0.95;;;5.80;97.50;;;;;;4974668;28;20277;-70
2023/02/25 12:39:55;;;;;;;1.50;1.20;;;5.90;97.30;;;;;;4990587;28;20207;-69
2023/02/25 12:42:44;;;;;;;1.55;0.90;;;6.00;97.40;;;;;;4984722;28;20215;-70
2023/02/25 12:45:36;;;;;;;1.30;1.10;;;6.10;96.90;;;;;;4987473;28;20210;-70
2023/02/25 12:48:24;;;;;;;2.30;1.00;;;6.20;96.40;;;;;;4979479;28;20291;-70
2023/02/25 12:51:16;;;;;;;1.40;1.30;;;6.10;96.80;;;;;;4987700;28;20316;-70
2023/02/25 12:53:55;;;;;;;3.53;1.15;;;6.10;97.40;;;;;;4986846;28;20238;-70
2023/02/25 12:57:00;;;;;;;1.63;1.20;;;5.90;97.10;;;;;;4987353;28;20697;-69
2023/02/25 12:59:46;;;;;;;4.43;1.20;;;5.70;97.60;;;;;;4952886;28;20223;-69
2023/02/25 13:02:39;;;;;;;1.52;0.90;;;5.60;98.90;;;;;;4987562;28;20215;-69
2023/02/25 13:05:26;;;;;;;1.67;1.13;;;5.50;99.90;;;;;;4982284;28;20207;-70
2023/02/25 13:08:34;;;;;;;2.40;1.20;;;5.40;99.80;;;;;;4987022;28;20225;-70
2023/02/25 13:11:14;;;;;;;1.40;0.95;;;5.40;99.90;;;;;;5013010;28;20207;-70
2023/02/25 13:14:09;;;;;;;1.45;1.17;;;5.40;99.90;;;;;;4986424;28;20783;-70
2023/02/25 13:16:51;;;;;;;4.93;1.40;;;5.30;99.90;;;;;;4987204;28;20211;-70
2023/02/25 13:19:43;;;;;;;3.75;1.25;;;5.10;99.90;;;;;;4987957;28;20298;-70